sensor_id;sensor_type;location;lat;lon;timestamp;P1;durP1;ratioP1;P2;durP2;ratioP2
21099;SDS011;10708;50.824;4.408;2022-11-22T00:00:57;12.80;;;2.90;;
21099;SDS011;10708;50.824;4.408;2022-11-22T00:06:01;20.10;;;3.33;;
21099;SDS011;10708;50.824;4.408;2022-11-22T00:11:03;16.93;;;3.00;;
21099;SDS011;10708;50.824;4.408;2022-11-22T00:16:06;18.63;;;3.40;;
21099;SDS011;10708;50.824;4.408;2022-11-22T00:21:09;13.70;;;2.90;;
21099;SDS011;10708;50.824;4.408;2022-11-22T00:26:11;15.77;;;2.50;;
21099;SDS011;10708;50.824;4.408;2022-11-22T00:31:14;23.10;;;3.93;;
21099;SDS011;10708;50.824;4.408;2022-11-22T00:36:17;19.30;;;2.67;;
21099;SDS011;10708;50.824;4.408;2022-11-22T00:41:20;13.23;;;2.50;;
21099;SDS011;10708;50.824;4.408;2022-11-22T00:46:22;16.37;;;2.97;;
21099;SDS011;10708;50.824;4.408;2022-11-22T00:51:26;15.90;;;4.03;;
21099;SDS011;10708;50.824;4.408;2022-11-22T00:56:28;10.37;;;3.23;;
21099;SDS011;10708;50.824;4.408;2022-11-22T01:01:31;12.57;;;2.60;;
21099;SDS011;10708;50.824;4.408;2022-11-22T01:06:35;15.70;;;3.13;;
21099;SDS011;10708;50.824;4.408;2022-11-22T01:11:37;18.07;;;2.73;;
21099;SDS011;10708;50.824;4.408;2022-11-22T01:16:39;16.73;;;3.30;;
21099;SDS011;10708;50.824;4.408;2022-11-22T01:21:44;14.03;;;2.83;;
21099;SDS011;10708;50.824;4.408;2022-11-22T01:26:46;10.83;;;2.20;;
21099;SDS011;10708;50.824;4.408;2022-11-22T01:31:48;16.70;;;2.70;;
21099;SDS011;10708;50.824;4.408;2022-11-22T01:36:52;13.80;;;2.93;;
21099;SDS011;10708;50.824;4.408;2022-11-22T01:41:54;13.83;;;2.30;;
21099;SDS011;10708;50.824;4.408;2022-11-22T01:46:56;15.27;;;2.53;;
21099;SDS011;10708;50.824;4.408;2022-11-22T01:52:03;16.57;;;2.67;;
21099;SDS011;10708;50.824;4.408;2022-11-22T01:57:09;15.93;;;3.20;;
21099;SDS011;10708;50.824;4.408;2022-11-22T02:02:17;15.98;;;3.28;;
21099;SDS011;10708;50.824;4.408;2022-11-22T02:07:21;21.07;;;2.10;;
21099;SDS011;10708;50.824;4.408;2022-11-22T02:12:28;13.67;;;2.37;;
21099;SDS011;10708;50.824;4.408;2022-11-22T02:17:32;14.53;;;1.97;;
21099;SDS011;10708;50.824;4.408;2022-11-22T02:22:38;15.23;;;2.57;;
21099;SDS011;10708;50.824;4.408;2022-11-22T02:27:47;11.80;;;2.03;;
21099;SDS011;10708;50.824;4.408;2022-11-22T02:32:50;13.10;;;2.10;;
21099;SDS011;10708;50.824;4.408;2022-11-22T02:37:54;9.17;;;2.10;;
21099;SDS011;10708;50.824;4.408;2022-11-22T02:43:00;13.40;;;2.50;;
21099;SDS011;10708;50.824;4.408;2022-11-22T02:48:06;14.80;;;2.17;;
21099;SDS011;10708;50.824;4.408;2022-11-22T02:53:11;9.67;;;2.37;;
21099;SDS011;10708;50.824;4.408;2022-11-22T02:58:15;14.80;;;2.07;;
21099;SDS011;10708;50.824;4.408;2022-11-22T03:03:18;12.93;;;2.30;;
21099;SDS011;10708;50.824;4.408;2022-11-22T03:08:20;9.67;;;2.03;;
21099;SDS011;10708;50.824;4.408;2022-11-22T03:13:24;15.90;;;2.00;;
21099;SDS011;10708;50.824;4.408;2022-11-22T03:18:26;16.20;;;2.20;;
21099;SDS011;10708;50.824;4.408;2022-11-22T03:23:29;10.87;;;1.90;;
21099;SDS011;10708;50.824;4.408;2022-11-22T03:28:33;14.07;;;2.13;;
21099;SDS011;10708;50.824;4.408;2022-11-22T03:33:35;8.67;;;1.73;;
21099;SDS011;10708;50.824;4.408;2022-11-22T03:38:37;6.60;;;1.67;;
21099;SDS011;10708;50.824;4.408;2022-11-22T03:43:41;11.23;;;2.60;;
21099;SDS011;10708;50.824;4.408;2022-11-22T03:48:43;14.67;;;2.67;;
21099;SDS011;10708;50.824;4.408;2022-11-22T03:53:45;7.77;;;2.37;;
21099;SDS011;10708;50.824;4.408;2022-11-22T03:58:49;8.97;;;1.50;;
21099;SDS011;10708;50.824;4.408;2022-11-22T04:03:51;10.93;;;2.10;;
21099;SDS011;10708;50.824;4.408;2022-11-22T04:08:53;6.30;;;1.17;;
21099;SDS011;10708;50.824;4.408;2022-11-22T04:13:57;10.83;;;1.77;;
21099;SDS011;10708;50.824;4.408;2022-11-22T04:19:17;13.67;;;2.03;;
21099;SDS011;10708;50.824;4.408;2022-11-22T04:24:19;11.00;;;2.47;;
21099;SDS011;10708;50.824;4.408;2022-11-22T04:29:41;10.03;;;2.30;;
21099;SDS011;10708;50.824;4.408;2022-11-22T04:34:43;9.90;;;1.97;;
21099;SDS011;10708;50.824;4.408;2022-11-22T04:39:45;11.20;;;2.30;;
21099;SDS011;10708;50.824;4.408;2022-11-22T04:44:49;11.30;;;1.80;;
21099;SDS011;10708;50.824;4.408;2022-11-22T04:49:51;7.37;;;2.43;;
21099;SDS011;10708;50.824;4.408;2022-11-22T04:54:53;11.47;;;2.90;;
21099;SDS011;10708;50.824;4.408;2022-11-22T04:59:57;13.87;;;2.70;;
21099;SDS011;10708;50.824;4.408;2022-11-22T05:04:59;9.43;;;2.70;;
21099;SDS011;10708;50.824;4.408;2022-11-22T05:10:02;9.27;;;2.47;;
21099;SDS011;10708;50.824;4.408;2022-11-22T05:15:07;17.23;;;2.53;;
21099;SDS011;10708;50.824;4.408;2022-11-22T05:20:10;15.10;;;2.80;;
21099;SDS011;10708;50.824;4.408;2022-11-22T05:25:13;11.20;;;2.93;;
21099;SDS011;10708;50.824;4.408;2022-11-22T05:30:16;11.37;;;2.63;;
21099;SDS011;10708;50.824;4.408;2022-11-22T05:35:19;10.57;;;2.80;;
21099;SDS011;10708;50.824;4.408;2022-11-22T05:40:21;12.37;;;3.03;;
21099;SDS011;10708;50.824;4.408;2022-11-22T05:45:25;9.67;;;2.10;;
21099;SDS011;10708;50.824;4.408;2022-11-22T05:50:27;8.60;;;2.77;;
21099;SDS011;10708;50.824;4.408;2022-11-22T05:55:29;13.40;;;3.63;;
21099;SDS011;10708;50.824;4.408;2022-11-22T06:00:33;11.23;;;2.60;;
21099;SDS011;10708;50.824;4.408;2022-11-22T06:05:35;5.57;;;2.30;;
21099;SDS011;10708;50.824;4.408;2022-11-22T06:10:38;11.37;;;3.13;;
21099;SDS011;10708;50.824;4.408;2022-11-22T06:15:42;12.70;;;2.53;;
21099;SDS011;10708;50.824;4.408;2022-11-22T06:20:44;10.73;;;2.63;;
21099;SDS011;10708;50.824;4.408;2022-11-22T06:25:46;7.27;;;2.93;;
21099;SDS011;10708;50.824;4.408;2022-11-22T06:30:50;10.57;;;2.77;;
21099;SDS011;10708;50.824;4.408;2022-11-22T06:35:52;9.50;;;3.03;;
21099;SDS011;10708;50.824;4.408;2022-11-22T06:40:57;7.80;;;3.10;;
21099;SDS011;10708;50.824;4.408;2022-11-22T06:46:02;7.10;;;2.80;;
21099;SDS011;10708;50.824;4.408;2022-11-22T06:51:06;8.93;;;3.40;;
21099;SDS011;10708;50.824;4.408;2022-11-22T06:56:12;12.30;;;3.80;;
21099;SDS011;10708;50.824;4.408;2022-11-22T07:01:17;12.00;;;3.40;;
21099;SDS011;10708;50.824;4.408;2022-11-22T07:06:21;7.83;;;2.53;;
21099;SDS011;10708;50.824;4.408;2022-11-22T07:11:24;8.13;;;3.00;;
21099;SDS011;10708;50.824;4.408;2022-11-22T07:16:29;12.77;;;3.33;;
21099;SDS011;10708;50.824;4.408;2022-11-22T07:21:31;7.60;;;2.73;;
21099;SDS011;10708;50.824;4.408;2022-11-22T07:26:34;9.67;;;2.97;;
21099;SDS011;10708;50.824;4.408;2022-11-22T07:31:38;13.07;;;3.30;;
21099;SDS011;10708;50.824;4.408;2022-11-22T07:36:41;10.87;;;3.10;;
21099;SDS011;10708;50.824;4.408;2022-11-22T07:41:43;10.20;;;3.80;;
21099;SDS011;10708;50.824;4.408;2022-11-22T07:46:48;10.02;;;3.10;;
21099;SDS011;10708;50.824;4.408;2022-11-22T07:51:55;7.00;;;2.83;;
21099;SDS011;10708;50.824;4.408;2022-11-22T07:56:59;13.10;;;3.00;;
21099;SDS011;10708;50.824;4.408;2022-11-22T08:02:02;9.53;;;3.03;;
21099;SDS011;10708;50.824;4.408;2022-11-22T08:07:04;10.13;;;2.47;;
21099;SDS011;10708;50.824;4.408;2022-11-22T08:12:07;10.03;;;2.47;;
21099;SDS011;10708;50.824;4.408;2022-11-22T08:17:11;8.23;;;2.47;;
21099;SDS011;10708;50.824;4.408;2022-11-22T08:22:13;9.73;;;2.63;;
21099;SDS011;10708;50.824;4.408;2022-11-22T08:27:18;6.63;;;2.13;;
21099;SDS011;10708;50.824;4.408;2022-11-22T08:32:26;5.87;;;2.27;;
21099;SDS011;10708;50.824;4.408;2022-11-22T08:37:28;6.97;;;2.20;;
21099;SDS011;10708;50.824;4.408;2022-11-22T08:42:30;9.03;;;2.27;;
21099;SDS011;10708;50.824;4.408;2022-11-22T08:47:34;10.20;;;2.90;;
21099;SDS011;10708;50.824;4.408;2022-11-22T08:52:37;13.07;;;2.63;;
21099;SDS011;10708;50.824;4.408;2022-11-22T08:57:40;15.10;;;2.40;;
21099;SDS011;10708;50.824;4.408;2022-11-22T09:02:44;8.03;;;2.60;;
21099;SDS011;10708;50.824;4.408;2022-11-22T09:07:46;7.47;;;2.33;;
21099;SDS011;10708;50.824;4.408;2022-11-22T09:12:49;14.17;;;2.90;;
21099;SDS011;10708;50.824;4.408;2022-11-22T09:17:58;8.40;;;2.60;;
21099;SDS011;10708;50.824;4.408;2022-11-22T09:23:01;9.53;;;2.63;;
21099;SDS011;10708;50.824;4.408;2022-11-22T09:28:04;7.63;;;2.10;;
21099;SDS011;10708;50.824;4.408;2022-11-22T09:33:08;13.20;;;2.70;;
21099;SDS011;10708;50.824;4.408;2022-11-22T09:38:10;6.83;;;2.40;;
21099;SDS011;10708;50.824;4.408;2022-11-22T09:43:14;7.07;;;2.17;;
21099;SDS011;10708;50.824;4.408;2022-11-22T09:48:31;5.53;;;2.27;;
21099;SDS011;10708;50.824;4.408;2022-11-22T09:53:45;6.63;;;2.20;;
21099;SDS011;10708;50.824;4.408;2022-11-22T09:58:53;6.87;;;2.10;;
21099;SDS011;10708;50.824;4.408;2022-11-22T10:04:02;5.93;;;1.60;;
21099;SDS011;10708;50.824;4.408;2022-11-22T10:09:17;3.43;;;1.87;;
21099;SDS011;10708;50.824;4.408;2022-11-22T10:14:31;5.77;;;1.93;;
21099;SDS011;10708;50.824;4.408;2022-11-22T10:19:43;2.57;;;1.60;;
21099;SDS011;10708;50.824;4.408;2022-11-22T10:24:51;5.63;;;1.40;;
21099;SDS011;10708;50.824;4.408;2022-11-22T10:29:54;4.40;;;1.50;;
21099;SDS011;10708;50.824;4.408;2022-11-22T10:35:17;2.77;;;1.20;;
21099;SDS011;10708;50.824;4.408;2022-11-22T10:40:41;2.67;;;1.13;;
21099;SDS011;10708;50.824;4.408;2022-11-22T10:45:55;4.90;;;1.20;;
21099;SDS011;10708;50.824;4.408;2022-11-22T10:51:07;4.13;;;1.27;;
21099;SDS011;10708;50.824;4.408;2022-11-22T10:56:20;4.67;;;1.37;;
21099;SDS011;10708;50.824;4.408;2022-11-22T11:01:32;2.23;;;1.37;;
21099;SDS011;10708;50.824;4.408;2022-11-22T11:06:44;5.10;;;1.30;;
21099;SDS011;10708;50.824;4.408;2022-11-22T11:11:50;3.07;;;1.90;;
21099;SDS011;10708;50.824;4.408;2022-11-22T11:16:55;2.73;;;1.60;;
21099;SDS011;10708;50.824;4.408;2022-11-22T11:22:01;4.37;;;1.60;;
21099;SDS011;10708;50.824;4.408;2022-11-22T11:27:17;2.37;;;1.50;;
21099;SDS011;10708;50.824;4.408;2022-11-22T11:32:22;4.90;;;1.77;;
21099;SDS011;10708;50.824;4.408;2022-11-22T11:37:31;3.67;;;1.90;;
21099;SDS011;10708;50.824;4.408;2022-11-22T11:42:35;2.27;;;1.30;;
21099;SDS011;10708;50.824;4.408;2022-11-22T11:47:37;6.80;;;1.37;;
21099;SDS011;10708;50.824;4.408;2022-11-22T11:52:47;2.37;;;1.60;;
21099;SDS011;10708;50.824;4.408;2022-11-22T11:57:51;2.33;;;1.10;;
21099;SDS011;10708;50.824;4.408;2022-11-22T12:02:55;4.77;;;1.00;;
21099;SDS011;10708;50.824;4.408;2022-11-22T12:08:08;1.23;;;0.80;;
21099;SDS011;10708;50.824;4.408;2022-11-22T12:13:30;2.37;;;1.00;;
21099;SDS011;10708;50.824;4.408;2022-11-22T12:18:37;1.40;;;0.90;;
21099;SDS011;10708;50.824;4.408;2022-11-22T12:23:49;3.87;;;1.13;;
21099;SDS011;10708;50.824;4.408;2022-11-22T12:28:56;7.77;;;1.30;;
21099;SDS011;10708;50.824;4.408;2022-11-22T12:34:01;2.20;;;1.17;;
21099;SDS011;10708;50.824;4.408;2022-11-22T12:39:10;2.33;;;0.90;;
21099;SDS011;10708;50.824;4.408;2022-11-22T12:44:16;2.13;;;1.20;;
21099;SDS011;10708;50.824;4.408;2022-11-22T12:49:25;1.60;;;1.20;;
21099;SDS011;10708;50.824;4.408;2022-11-22T12:54:34;2.03;;;1.13;;
21099;SDS011;10708;50.824;4.408;2022-11-22T12:59:44;1.70;;;1.30;;
21099;SDS011;10708;50.824;4.408;2022-11-22T13:04:55;2.83;;;1.37;;
21099;SDS011;10708;50.824;4.408;2022-11-22T13:10:04;3.80;;;1.40;;
21099;SDS011;10708;50.824;4.408;2022-11-22T13:15:13;2.47;;;1.40;;
21099;SDS011;10708;50.824;4.408;2022-11-22T13:20:27;2.60;;;1.50;;
21099;SDS011;10708;50.824;4.408;2022-11-22T13:25:38;5.10;;;3.70;;
21099;SDS011;10708;50.824;4.408;2022-11-22T13:31:11;3.07;;;1.50;;
21099;SDS011;10708;50.824;4.408;2022-11-22T13:41:38;5.10;;;1.57;;
21099;SDS011;10708;50.824;4.408;2022-11-22T13:46:53;8.87;;;2.07;;
21099;SDS011;10708;50.824;4.408;2022-11-22T13:51:58;4.07;;;1.30;;
21099;SDS011;10708;50.824;4.408;2022-11-22T13:57:21;3.03;;;1.40;;
21099;SDS011;10708;50.824;4.408;2022-11-22T14:02:27;5.13;;;1.30;;
21099;SDS011;10708;50.824;4.408;2022-11-22T14:12:44;2.30;;;1.27;;
21099;SDS011;10708;50.824;4.408;2022-11-22T14:18:07;3.77;;;1.10;;
21099;SDS011;10708;50.824;4.408;2022-11-22T14:23:23;3.30;;;1.30;;
21099;SDS011;10708;50.824;4.408;2022-11-22T14:28:43;3.53;;;1.43;;
21099;SDS011;10708;50.824;4.408;2022-11-22T14:34:14;3.00;;;1.20;;
21099;SDS011;10708;50.824;4.408;2022-11-22T14:45:11;4.87;;;0.80;;
21099;SDS011;10708;50.824;4.408;2022-11-22T14:50:23;5.17;;;1.10;;
21099;SDS011;10708;50.824;4.408;2022-11-22T14:55:29;2.17;;;1.20;;
21099;SDS011;10708;50.824;4.408;2022-11-22T15:00:45;3.43;;;0.90;;
21099;SDS011;10708;50.824;4.408;2022-11-22T15:06:14;8.00;;;1.50;;
21099;SDS011;10708;50.824;4.408;2022-11-22T15:11:43;4.67;;;1.40;;
21099;SDS011;10708;50.824;4.408;2022-11-22T15:16:59;9.83;;;1.30;;
21099;SDS011;10708;50.824;4.408;2022-11-22T15:22:06;7.50;;;1.30;;
21099;SDS011;10708;50.824;4.408;2022-11-22T15:27:16;4.90;;;1.13;;
21099;SDS011;10708;50.824;4.408;2022-11-22T15:32:21;5.20;;;1.10;;
21099;SDS011;10708;50.824;4.408;2022-11-22T15:37:26;8.93;;;1.40;;
21099;SDS011;10708;50.824;4.408;2022-11-22T15:42:38;6.33;;;1.80;;
21099;SDS011;10708;50.824;4.408;2022-11-22T15:47:57;6.97;;;2.10;;
21099;SDS011;10708;50.824;4.408;2022-11-22T15:53:24;6.83;;;1.70;;
21099;SDS011;10708;50.824;4.408;2022-11-22T15:58:29;7.40;;;1.67;;
21099;SDS011;10708;50.824;4.408;2022-11-22T16:03:37;7.77;;;1.87;;
21099;SDS011;10708;50.824;4.408;2022-11-22T16:08:46;11.57;;;2.87;;
21099;SDS011;10708;50.824;4.408;2022-11-22T16:13:49;8.93;;;2.17;;
21099;SDS011;10708;50.824;4.408;2022-11-22T16:18:53;14.30;;;1.87;;
21099;SDS011;10708;50.824;4.408;2022-11-22T16:24:20;7.57;;;2.30;;
21099;SDS011;10708;50.824;4.408;2022-11-22T16:29:28;9.67;;;2.20;;
21099;SDS011;10708;50.824;4.408;2022-11-22T16:34:36;16.47;;;3.30;;
21099;SDS011;10708;50.824;4.408;2022-11-22T16:39:42;14.03;;;2.50;;
21099;SDS011;10708;50.824;4.408;2022-11-22T16:44:50;12.70;;;3.17;;
21099;SDS011;10708;50.824;4.408;2022-11-22T16:49:54;13.33;;;2.90;;
21099;SDS011;10708;50.824;4.408;2022-11-22T16:54:57;14.80;;;2.83;;
21099;SDS011;10708;50.824;4.408;2022-11-22T17:00:00;10.17;;;2.53;;
21099;SDS011;10708;50.824;4.408;2022-11-22T17:05:04;15.40;;;3.27;;
21099;SDS011;10708;50.824;4.408;2022-11-22T17:10:09;18.93;;;4.13;;
21099;SDS011;10708;50.824;4.408;2022-11-22T17:15:23;12.90;;;2.97;;
21099;SDS011;10708;50.824;4.408;2022-11-22T17:20:28;12.23;;;2.73;;
21099;SDS011;10708;50.824;4.408;2022-11-22T17:25:33;17.07;;;3.70;;
21099;SDS011;10708;50.824;4.408;2022-11-22T17:30:36;8.87;;;2.67;;
21099;SDS011;10708;50.824;4.408;2022-11-22T17:35:40;8.57;;;1.87;;
21099;SDS011;10708;50.824;4.408;2022-11-22T17:40:43;13.33;;;2.27;;
21099;SDS011;10708;50.824;4.408;2022-11-22T17:45:45;11.87;;;2.20;;
21099;SDS011;10708;50.824;4.408;2022-11-22T17:50:49;23.70;;;2.97;;
21099;SDS011;10708;50.824;4.408;2022-11-22T17:55:52;8.63;;;2.47;;
21099;SDS011;10708;50.824;4.408;2022-11-22T18:01:00;40.03;;;15.13;;
21099;SDS011;10708;50.824;4.408;2022-11-22T18:06:05;19.90;;;3.77;;
21099;SDS011;10708;50.824;4.408;2022-11-22T18:11:08;11.33;;;2.70;;
21099;SDS011;10708;50.824;4.408;2022-11-22T18:16:11;16.70;;;3.23;;
21099;SDS011;10708;50.824;4.408;2022-11-22T18:21:18;16.20;;;2.63;;
21099;SDS011;10708;50.824;4.408;2022-11-22T18:26:20;16.67;;;3.47;;
21099;SDS011;10708;50.824;4.408;2022-11-22T18:31:23;15.47;;;3.40;;
21099;SDS011;10708;50.824;4.408;2022-11-22T18:36:26;13.80;;;2.60;;
21099;SDS011;10708;50.824;4.408;2022-11-22T18:41:29;11.33;;;3.10;;
21099;SDS011;10708;50.824;4.408;2022-11-22T18:46:31;14.93;;;3.00;;
21099;SDS011;10708;50.824;4.408;2022-11-22T18:51:35;11.73;;;3.33;;
21099;SDS011;10708;50.824;4.408;2022-11-22T18:56:38;14.13;;;3.33;;
21099;SDS011;10708;50.824;4.408;2022-11-22T19:01:40;28.97;;;9.30;;
21099;SDS011;10708;50.824;4.408;2022-11-22T19:06:44;14.87;;;2.83;;
21099;SDS011;10708;50.824;4.408;2022-11-22T19:11:47;15.83;;;3.43;;
21099;SDS011;10708;50.824;4.408;2022-11-22T19:17:00;16.83;;;3.57;;
21099;SDS011;10708;50.824;4.408;2022-11-22T19:22:04;10.20;;;2.90;;
21099;SDS011;10708;50.824;4.408;2022-11-22T19:27:06;14.57;;;3.07;;
21099;SDS011;10708;50.824;4.408;2022-11-22T19:32:09;15.10;;;3.43;;
21099;SDS011;10708;50.824;4.408;2022-11-22T19:37:13;13.23;;;3.13;;
21099;SDS011;10708;50.824;4.408;2022-11-22T19:42:15;13.03;;;2.93;;
21099;SDS011;10708;50.824;4.408;2022-11-22T19:47:17;14.13;;;3.27;;
21099;SDS011;10708;50.824;4.408;2022-11-22T19:52:21;12.17;;;2.90;;
21099;SDS011;10708;50.824;4.408;2022-11-22T19:57:23;15.83;;;3.60;;
21099;SDS011;10708;50.824;4.408;2022-11-22T20:02:26;10.13;;;3.10;;
21099;SDS011;10708;50.824;4.408;2022-11-22T20:07:30;11.10;;;2.60;;
21099;SDS011;10708;50.824;4.408;2022-11-22T20:12:33;18.60;;;3.30;;
21099;SDS011;10708;50.824;4.408;2022-11-22T20:17:35;17.90;;;3.93;;
21099;SDS011;10708;50.824;4.408;2022-11-22T20:22:39;21.43;;;3.87;;
21099;SDS011;10708;50.824;4.408;2022-11-22T20:27:41;17.10;;;3.70;;
21099;SDS011;10708;50.824;4.408;2022-11-22T20:32:44;15.80;;;3.43;;
21099;SDS011;10708;50.824;4.408;2022-11-22T20:37:48;11.87;;;3.43;;
21099;SDS011;10708;50.824;4.408;2022-11-22T20:42:50;17.30;;;3.60;;
21099;SDS011;10708;50.824;4.408;2022-11-22T20:47:53;10.30;;;3.33;;
21099;SDS011;10708;50.824;4.408;2022-11-22T20:52:57;13.83;;;3.23;;
21099;SDS011;10708;50.824;4.408;2022-11-22T20:57:59;17.33;;;3.30;;
21099;SDS011;10708;50.824;4.408;2022-11-22T21:03:01;11.37;;;2.60;;
21099;SDS011;10708;50.824;4.408;2022-11-22T21:08:06;15.53;;;3.30;;
21099;SDS011;10708;50.824;4.408;2022-11-22T21:13:09;10.73;;;2.57;;
21099;SDS011;10708;50.824;4.408;2022-11-22T21:18:14;7.83;;;2.30;;
21099;SDS011;10708;50.824;4.408;2022-11-22T21:23:20;9.83;;;2.07;;
21099;SDS011;10708;50.824;4.408;2022-11-22T21:28:22;10.03;;;3.20;;
21099;SDS011;10708;50.824;4.408;2022-11-22T21:33:25;14.13;;;2.80;;
21099;SDS011;10708;50.824;4.408;2022-11-22T21:38:32;13.70;;;3.20;;
21099;SDS011;10708;50.824;4.408;2022-11-22T21:43:35;9.83;;;2.80;;
21099;SDS011;10708;50.824;4.408;2022-11-22T21:48:37;9.63;;;3.07;;
21099;SDS011;10708;50.824;4.408;2022-11-22T21:53:41;11.13;;;2.17;;
21099;SDS011;10708;50.824;4.408;2022-11-22T21:58:43;8.27;;;2.97;;
21099;SDS011;10708;50.824;4.408;2022-11-22T22:03:46;10.73;;;2.00;;
21099;SDS011;10708;50.824;4.408;2022-11-22T22:08:49;16.97;;;2.80;;
21099;SDS011;10708;50.824;4.408;2022-11-22T22:13:52;14.37;;;2.90;;
21099;SDS011;10708;50.824;4.408;2022-11-22T22:18:54;9.73;;;2.40;;
21099;SDS011;10708;50.824;4.408;2022-11-22T22:23:58;14.93;;;2.60;;
21099;SDS011;10708;50.824;4.408;2022-11-22T22:29:01;13.63;;;2.37;;
21099;SDS011;10708;50.824;4.408;2022-11-22T22:34:03;10.70;;;2.53;;
21099;SDS011;10708;50.824;4.408;2022-11-22T22:39:06;10.20;;;2.30;;
21099;SDS011;10708;50.824;4.408;2022-11-22T22:44:09;11.00;;;2.37;;
21099;SDS011;10708;50.824;4.408;2022-11-22T22:49:11;10.33;;;2.00;;
21099;SDS011;10708;50.824;4.408;2022-11-22T22:54:14;8.27;;;1.97;;
21099;SDS011;10708;50.824;4.408;2022-11-22T22:59:16;11.30;;;2.47;;
21099;SDS011;10708;50.824;4.408;2022-11-22T23:10:07;16.13;;;2.13;;
21099;SDS011;10708;50.824;4.408;2022-11-22T23:20:42;12.97;;;2.60;;
21099;SDS011;10708;50.824;4.408;2022-11-22T23:25:46;5.27;;;2.57;;
21099;SDS011;10708;50.824;4.408;2022-11-22T23:30:48;10.47;;;2.73;;
21099;SDS011;10708;50.824;4.408;2022-11-22T23:35:50;10.20;;;2.40;;
21099;SDS011;10708;50.824;4.408;2022-11-22T23:40:54;9.60;;;2.40;;
21099;SDS011;10708;50.824;4.408;2022-11-22T23:45:57;13.80;;;2.47;;
21099;SDS011;10708;50.824;4.408;2022-11-22T23:51:01;6.90;;;2.00;;
21099;SDS011;10708;50.824;4.408;2022-11-22T23:56:06;9.33;;;2.50;;
